sensor_id;sensor_type;location;lat;lon;timestamp;P1;P2;P0
61873;PMS5003;49692;55.052;73.310;2022-07-29T00:01:27;13.75;12.00;7.00
61873;PMS5003;49692;55.052;73.310;2022-07-29T00:03:53;12.00;12.00;8.00
61873;PMS5003;49692;55.052;73.310;2022-07-29T00:06:20;10.00;8.50;6.00
61873;PMS5003;49692;55.052;73.310;2022-07-29T00:08:51;15.00;10.75;5.00
61873;PMS5003;49692;55.052;73.310;2022-07-29T00:11:23;12.25;11.25;7.00
61873;PMS5003;49692;55.052;73.310;2022-07-29T00:13:49;10.50;9.75;6.75
61873;PMS5003;49692;55.052;73.310;2022-07-29T00:16:16;11.25;9.50;7.50
61873;PMS5003;49692;55.052;73.310;2022-07-29T00:18:42;11.00;11.00;7.50
61873;PMS5003;49692;55.052;73.310;2022-07-29T00:21:14;11.25;11.25;7.25
61873;PMS5003;49692;55.052;73.310;2022-07-29T00:23:45;10.25;8.00;5.75
61873;PMS5003;49692;55.052;73.310;2022-07-29T00:26:12;10.40;8.60;6.60
61873;PMS5003;49692;55.052;73.310;2022-07-29T00:28:47;8.50;8.00;5.25
61873;PMS5003;49692;55.052;73.310;2022-07-29T00:31:19;7.25;5.50;1.50
61873;PMS5003;49692;55.052;73.310;2022-07-29T00:33:46;9.00;7.50;6.00
61873;PMS5003;49692;55.052;73.310;2022-07-29T00:36:12;12.00;11.00;6.00
61873;PMS5003;49692;55.052;73.310;2022-07-29T00:38:39;11.00;8.20;5.20
61873;PMS5003;49692;55.052;73.310;2022-07-29T00:41:09;9.25;6.50;3.75
61873;PMS5003;49692;55.052;73.310;2022-07-29T00:43:36;8.75;8.00;4.00
61873;PMS5003;49692;55.052;73.310;2022-07-29T00:46:03;9.50;8.50;4.00
61873;PMS5003;49692;55.052;73.310;2022-07-29T00:48:29;8.50;7.75;6.00
61873;PMS5003;49692;55.052;73.310;2022-07-29T00:50:57;7.00;7.00;4.00
61873;PMS5003;49692;55.052;73.310;2022-07-29T00:53:26;7.75;7.00;5.25
61873;PMS5003;49692;55.052;73.310;2022-07-29T00:55:56;6.60;6.60;4.20
61873;PMS5003;49692;55.052;73.310;2022-07-29T00:58:24;6.80;6.20;4.00
61873;PMS5003;49692;55.052;73.310;2022-07-29T01:00:52;11.60;10.20;6.80
61873;PMS5003;49692;55.052;73.310;2022-07-29T01:03:20;6.50;6.50;5.25
61873;PMS5003;49692;55.052;73.310;2022-07-29T01:05:55;10.00;8.50;5.00
61873;PMS5003;49692;55.052;73.310;2022-07-29T01:08:22;8.80;8.80;6.00
61873;PMS5003;49692;55.052;73.310;2022-07-29T01:10:49;16.40;11.80;7.00
61873;PMS5003;49692;55.052;73.310;2022-07-29T01:13:17;11.00;8.60;4.00
61873;PMS5003;49692;55.052;73.310;2022-07-29T01:15:47;9.40;7.60;4.00
61873;PMS5003;49692;55.052;73.310;2022-07-29T01:18:52;11.00;9.40;6.40
61873;PMS5003;49692;55.052;73.310;2022-07-29T01:21:16;6.20;3.40;2.20
61873;PMS5003;49692;55.052;73.310;2022-07-29T01:27:07;10.40;8.20;5.00
61873;PMS5003;49692;55.052;73.310;2022-07-29T01:30:29;14.40;11.40;7.00
61873;PMS5003;49692;55.052;73.310;2022-07-29T01:33:02;9.60;7.60;4.00
61873;PMS5003;49692;55.052;73.310;2022-07-29T01:35:33;11.00;11.00;5.80
61873;PMS5003;49692;55.052;73.310;2022-07-29T01:38:09;10.60;8.20;4.60
61873;PMS5003;49692;55.052;73.310;2022-07-29T01:40:45;15.00;12.40;6.80
61873;PMS5003;49692;55.052;73.310;2022-07-29T01:43:28;11.40;8.00;6.00
61873;PMS5003;49692;55.052;73.310;2022-07-29T01:46:14;12.25;9.50;6.50
61873;PMS5003;49692;55.052;73.310;2022-07-29T01:48:51;11.00;8.25;5.00
61873;PMS5003;49692;55.052;73.310;2022-07-29T01:51:25;12.25;10.00;6.00
61873;PMS5003;49692;55.052;73.310;2022-07-29T01:54:05;10.40;8.00;6.00
61873;PMS5003;49692;55.052;73.310;2022-07-29T01:56:34;9.80;8.00;6.00
61873;PMS5003;49692;55.052;73.310;2022-07-29T01:59:14;12.60;9.60;6.40
61873;PMS5003;49692;55.052;73.310;2022-07-29T02:01:43;14.00;11.00;7.60
61873;PMS5003;49692;55.052;73.310;2022-07-29T02:04:13;16.80;12.40;6.20
61873;PMS5003;49692;55.052;73.310;2022-07-29T02:06:42;11.80;9.20;5.60
61873;PMS5003;49692;55.052;73.310;2022-07-29T02:09:12;22.50;18.50;12.25
61873;PMS5003;49692;55.052;73.310;2022-07-29T02:11:42;11.00;9.00;5.60
61873;PMS5003;49692;55.052;73.310;2022-07-29T02:14:23;10.60;10.60;8.00
61873;PMS5003;49692;55.052;73.310;2022-07-29T02:16:52;13.80;13.80;7.00
61873;PMS5003;49692;55.052;73.310;2022-07-29T02:19:23;14.20;11.00;8.00
61873;PMS5003;49692;55.052;73.310;2022-07-29T02:21:53;12.00;11.00;7.80
61873;PMS5003;49692;55.052;73.310;2022-07-29T02:24:23;14.60;13.40;7.00
61873;PMS5003;49692;55.052;73.310;2022-07-29T02:26:51;11.60;8.80;7.00
61873;PMS5003;49692;55.052;73.310;2022-07-29T02:29:21;9.60;9.60;6.00
61873;PMS5003;49692;55.052;73.310;2022-07-29T02:31:53;10.40;9.00;6.20
61873;PMS5003;49692;55.052;73.310;2022-07-29T02:34:21;11.80;10.80;6.60
61873;PMS5003;49692;55.052;73.310;2022-07-29T02:36:49;8.60;8.60;5.60
61873;PMS5003;49692;55.052;73.310;2022-07-29T02:39:18;13.00;9.00;5.00
61873;PMS5003;49692;55.052;73.310;2022-07-29T02:41:55;7.00;5.80;1.80
61873;PMS5003;49692;55.052;73.310;2022-07-29T02:44:27;12.00;9.60;7.00
61873;PMS5003;49692;55.052;73.310;2022-07-29T02:47:16;11.20;11.20;6.40
61873;PMS5003;49692;55.052;73.310;2022-07-29T02:50:07;13.60;10.20;6.60
61873;PMS5003;49692;55.052;73.310;2022-07-29T02:53:01;6.40;6.40;4.00
61873;PMS5003;49692;55.052;73.310;2022-07-29T02:55:45;9.40;9.40;3.20
61873;PMS5003;49692;55.052;73.310;2022-07-29T02:58:40;11.40;7.80;5.20
61873;PMS5003;49692;55.052;73.310;2022-07-29T03:01:20;9.80;8.80;4.20
61873;PMS5003;49692;55.052;73.310;2022-07-29T03:03:53;8.00;7.20;4.20
61873;PMS5003;49692;55.052;73.310;2022-07-29T03:06:20;9.60;9.60;6.60
61873;PMS5003;49692;55.052;73.310;2022-07-29T03:08:49;8.20;7.80;4.80
61873;PMS5003;49692;55.052;73.310;2022-07-29T03:11:17;7.80;7.40;3.80
61873;PMS5003;49692;55.052;73.310;2022-07-29T03:13:44;8.20;7.80;5.20
61873;PMS5003;49692;55.052;73.310;2022-07-29T03:16:11;7.00;7.00;3.80
61873;PMS5003;49692;55.052;73.310;2022-07-29T03:18:39;10.20;8.60;4.80
61873;PMS5003;49692;55.052;73.310;2022-07-29T03:21:05;7.20;6.00;3.00
61873;PMS5003;49692;55.052;73.310;2022-07-29T03:23:45;8.40;5.80;2.20
61873;PMS5003;49692;55.052;73.310;2022-07-29T03:26:16;7.40;4.00;3.00
61873;PMS5003;49692;55.052;73.310;2022-07-29T03:28:46;7.20;5.80;3.00
61873;PMS5003;49692;55.052;73.310;2022-07-29T03:31:16;9.20;7.40;5.00
61873;PMS5003;49692;55.052;73.310;2022-07-29T03:33:42;6.00;6.00;3.20
61873;PMS5003;49692;55.052;73.310;2022-07-29T03:36:09;7.60;6.80;4.40
61873;PMS5003;49692;55.052;73.310;2022-07-29T03:38:35;11.00;7.40;3.80
61873;PMS5003;49692;55.052;73.310;2022-07-29T03:41:09;5.60;5.60;3.00
61873;PMS5003;49692;55.052;73.310;2022-07-29T03:43:38;6.60;6.00;4.00
61873;PMS5003;49692;55.052;73.310;2022-07-29T03:46:08;7.40;7.40;5.00
61873;PMS5003;49692;55.052;73.310;2022-07-29T03:48:37;5.80;5.80;2.60
61873;PMS5003;49692;55.052;73.310;2022-07-29T03:51:08;6.00;6.00;3.00
61873;PMS5003;49692;55.052;73.310;2022-07-29T03:53:35;7.80;5.80;3.00
61873;PMS5003;49692;55.052;73.310;2022-07-29T03:56:02;6.20;5.00;4.20
61873;PMS5003;49692;55.052;73.310;2022-07-29T03:58:29;10.40;7.60;5.00
61873;PMS5003;49692;55.052;73.310;2022-07-29T04:00:57;5.00;5.00;2.20
61873;PMS5003;49692;55.052;73.310;2022-07-29T04:03:24;4.40;4.40;2.20
61873;PMS5003;49692;55.052;73.310;2022-07-29T04:06:00;6.80;6.80;3.20
61873;PMS5003;49692;55.052;73.310;2022-07-29T04:08:29;7.80;7.80;4.00
61873;PMS5003;49692;55.052;73.310;2022-07-29T04:10:55;9.80;8.60;6.60
61873;PMS5003;49692;55.052;73.310;2022-07-29T04:13:23;14.25;13.00;8.50
61873;PMS5003;49692;55.052;73.310;2022-07-29T04:15:53;14.00;13.50;8.00
61873;PMS5003;49692;55.052;73.310;2022-07-29T04:18:36;16.25;15.50;10.25
61873;PMS5003;49692;55.052;73.310;2022-07-29T04:21:02;21.50;15.50;10.50
61873;PMS5003;49692;55.052;73.310;2022-07-29T04:23:29;18.67;17.67;11.33
61873;PMS5003;49692;55.052;73.310;2022-07-29T04:25:59;22.00;18.50;12.50
61873;PMS5003;49692;55.052;73.310;2022-07-29T04:28:26;22.75;22.50;13.25
61873;PMS5003;49692;55.052;73.310;2022-07-29T04:30:53;24.20;22.60;12.60
61873;PMS5003;49692;55.052;73.310;2022-07-29T04:33:19;23.00;20.00;12.75
61873;PMS5003;49692;55.052;73.310;2022-07-29T04:35:46;21.25;16.50;9.75
61873;PMS5003;49692;55.052;73.310;2022-07-29T04:38:12;24.00;21.50;13.25
61873;PMS5003;49692;55.052;73.310;2022-07-29T04:40:39;26.75;23.50;14.75
61873;PMS5003;49692;55.052;73.310;2022-07-29T04:43:05;24.75;20.75;14.50
61873;PMS5003;49692;55.052;73.310;2022-07-29T04:45:32;29.50;26.75;16.00
61873;PMS5003;49692;55.052;73.310;2022-07-29T04:48:19;25.50;19.25;11.50
61873;PMS5003;49692;55.052;73.310;2022-07-29T04:50:45;26.75;25.50;15.25
61873;PMS5003;49692;55.052;73.310;2022-07-29T04:53:12;26.00;22.00;15.20
61873;PMS5003;49692;55.052;73.310;2022-07-29T04:55:43;21.40;21.20;13.00
61873;PMS5003;49692;55.052;73.310;2022-07-29T04:58:10;19.50;16.00;7.50
61873;PMS5003;49692;55.052;73.310;2022-07-29T05:00:37;23.75;22.75;15.25
61873;PMS5003;49692;55.052;73.310;2022-07-29T05:03:15;29.40;22.80;14.40
61873;PMS5003;49692;55.052;73.310;2022-07-29T05:05:45;25.25;25.00;14.75
61873;PMS5003;49692;55.052;73.310;2022-07-29T05:08:11;26.50;24.25;14.75
61873;PMS5003;49692;55.052;73.310;2022-07-29T05:10:38;29.25;26.75;15.75
61873;PMS5003;49692;55.052;73.310;2022-07-29T05:13:05;25.25;22.50;16.00
61873;PMS5003;49692;55.052;73.310;2022-07-29T05:15:33;27.00;24.25;15.75
61873;PMS5003;49692;55.052;73.310;2022-07-29T05:18:00;25.50;25.00;13.00
61873;PMS5003;49692;55.052;73.310;2022-07-29T05:20:27;32.25;26.50;15.75
61873;PMS5003;49692;55.052;73.310;2022-07-29T05:23:00;23.20;20.80;14.40
61873;PMS5003;49692;55.052;73.310;2022-07-29T05:25:28;20.00;20.00;13.75
61873;PMS5003;49692;55.052;73.310;2022-07-29T05:27:55;24.60;24.00;15.00
61873;PMS5003;49692;55.052;73.310;2022-07-29T05:30:22;24.60;20.20;11.40
61873;PMS5003;49692;55.052;73.310;2022-07-29T05:32:49;20.00;20.00;12.00
61873;PMS5003;49692;55.052;73.310;2022-07-29T05:35:16;21.60;21.40;13.00
61873;PMS5003;49692;55.052;73.310;2022-07-29T05:37:47;23.75;20.75;14.00
61873;PMS5003;49692;55.052;73.310;2022-07-29T05:40:14;20.50;18.25;12.50
61873;PMS5003;49692;55.052;73.310;2022-07-29T05:42:40;20.75;19.25;13.50
61873;PMS5003;49692;55.052;73.310;2022-07-29T05:45:10;21.25;18.25;13.25
61873;PMS5003;49692;55.052;73.310;2022-07-29T05:47:36;18.00;17.00;10.00
61873;PMS5003;49692;55.052;73.310;2022-07-29T05:50:09;18.00;18.00;13.40
61873;PMS5003;49692;55.052;73.310;2022-07-29T05:52:47;23.00;20.75;12.00
61873;PMS5003;49692;55.052;73.310;2022-07-29T05:55:23;17.20;15.60;10.00
61873;PMS5003;49692;55.052;73.310;2022-07-29T05:57:51;24.00;21.00;14.80
61873;PMS5003;49692;55.052;73.310;2022-07-29T06:00:21;24.40;19.40;14.00
61873;PMS5003;49692;55.052;73.310;2022-07-29T06:02:48;17.00;15.80;11.80
61873;PMS5003;49692;55.052;73.310;2022-07-29T06:05:24;22.40;16.60;12.20
61873;PMS5003;49692;55.052;73.310;2022-07-29T06:07:51;17.40;15.00;8.80
61873;PMS5003;49692;55.052;73.310;2022-07-29T06:10:22;25.60;20.40;13.00
61873;PMS5003;49692;55.052;73.310;2022-07-29T06:12:48;23.60;22.20;15.20
61873;PMS5003;49692;55.052;73.310;2022-07-29T06:15:15;25.40;23.40;15.20
61873;PMS5003;49692;55.052;73.310;2022-07-29T06:17:42;18.60;16.80;11.40
61873;PMS5003;49692;55.052;73.310;2022-07-29T06:20:18;24.60;22.00;14.40
61873;PMS5003;49692;55.052;73.310;2022-07-29T06:22:45;26.20;21.80;12.20
61873;PMS5003;49692;55.052;73.310;2022-07-29T06:25:16;22.80;22.40;14.60
61873;PMS5003;49692;55.052;73.310;2022-07-29T06:27:52;23.60;21.00;13.60
61873;PMS5003;49692;55.052;73.310;2022-07-29T06:30:19;20.40;18.40;11.60
61873;PMS5003;49692;55.052;73.310;2022-07-29T06:32:45;20.80;20.80;13.20
61873;PMS5003;49692;55.052;73.310;2022-07-29T06:35:17;21.80;18.00;12.60
61873;PMS5003;49692;55.052;73.310;2022-07-29T06:37:54;15.80;15.80;10.60
61873;PMS5003;49692;55.052;73.310;2022-07-29T06:40:21;19.00;19.00;14.00
61873;PMS5003;49692;55.052;73.310;2022-07-29T06:43:05;25.40;21.80;15.60
61873;PMS5003;49692;55.052;73.310;2022-07-29T06:45:37;20.60;19.20;13.20
61873;PMS5003;49692;55.052;73.310;2022-07-29T06:48:06;23.20;17.60;12.80
61873;PMS5003;49692;55.052;73.310;2022-07-29T06:50:33;25.00;20.40;14.60
61873;PMS5003;49692;55.052;73.310;2022-07-29T06:52:59;23.20;21.40;15.20
61873;PMS5003;49692;55.052;73.310;2022-07-29T06:55:26;17.60;17.00;10.00
61873;PMS5003;49692;55.052;73.310;2022-07-29T06:57:52;18.80;17.80;11.40
61873;PMS5003;49692;55.052;73.310;2022-07-29T07:00:19;25.40;20.00;12.00
61873;PMS5003;49692;55.052;73.310;2022-07-29T07:02:45;20.40;17.00;13.20
61873;PMS5003;49692;55.052;73.310;2022-07-29T07:05:17;27.40;22.20;13.40
61873;PMS5003;49692;55.052;73.310;2022-07-29T07:07:48;25.80;20.80;13.60
61873;PMS5003;49692;55.052;73.310;2022-07-29T07:10:26;18.00;18.00;9.60
61873;PMS5003;49692;55.052;73.310;2022-07-29T07:12:58;13.60;13.60;8.80
61873;PMS5003;49692;55.052;73.310;2022-07-29T07:15:36;21.80;17.40;13.00
61873;PMS5003;49692;55.052;73.310;2022-07-29T07:18:06;18.20;17.20;11.00
61873;PMS5003;49692;55.052;73.310;2022-07-29T07:20:33;21.60;19.00;14.00
61873;PMS5003;49692;55.052;73.310;2022-07-29T07:23:00;13.00;13.00;12.20
61873;PMS5003;49692;55.052;73.310;2022-07-29T07:25:27;20.40;20.20;12.40
61873;PMS5003;49692;55.052;73.310;2022-07-29T07:27:54;23.80;21.40;14.80
61873;PMS5003;49692;55.052;73.310;2022-07-29T07:30:21;20.00;17.80;14.20
61873;PMS5003;49692;55.052;73.310;2022-07-29T07:32:47;19.60;13.20;6.00
61873;PMS5003;49692;55.052;73.310;2022-07-29T07:35:23;20.60;19.60;13.00
61873;PMS5003;49692;55.052;73.310;2022-07-29T07:37:50;18.20;18.20;12.40
61873;PMS5003;49692;55.052;73.310;2022-07-29T07:40:21;18.80;17.20;11.00
61873;PMS5003;49692;55.052;73.310;2022-07-29T07:42:55;14.20;13.80;8.40
61873;PMS5003;49692;55.052;73.310;2022-07-29T07:45:22;18.60;18.00;11.80
61873;PMS5003;49692;55.052;73.310;2022-07-29T07:47:52;17.60;16.60;11.80
61873;PMS5003;49692;55.052;73.310;2022-07-29T07:50:25;14.40;13.00;11.40
61873;PMS5003;49692;55.052;73.310;2022-07-29T07:52:52;19.40;18.40;13.00
61873;PMS5003;49692;55.052;73.310;2022-07-29T07:55:23;23.00;19.40;14.60
61873;PMS5003;49692;55.052;73.310;2022-07-29T07:57:50;19.00;18.20;13.20
61873;PMS5003;49692;55.052;73.310;2022-07-29T08:00:17;19.00;18.00;11.60
61873;PMS5003;49692;55.052;73.310;2022-07-29T08:02:44;19.60;18.00;13.20
61873;PMS5003;49692;55.052;73.310;2022-07-29T08:05:11;22.40;22.00;14.20
61873;PMS5003;49692;55.052;73.310;2022-07-29T08:07:46;24.00;23.00;14.00
61873;PMS5003;49692;55.052;73.310;2022-07-29T08:10:15;23.40;21.00;14.60
61873;PMS5003;49692;55.052;73.310;2022-07-29T08:13:02;23.40;17.80;12.20
61873;PMS5003;49692;55.052;73.310;2022-07-29T08:15:33;21.40;19.80;12.80
61873;PMS5003;49692;55.052;73.310;2022-07-29T08:18:04;21.20;19.00;13.40
61873;PMS5003;49692;55.052;73.310;2022-07-29T08:20:30;21.20;18.80;13.60
61873;PMS5003;49692;55.052;73.310;2022-07-29T08:22:59;19.60;18.60;13.00
61873;PMS5003;49692;55.052;73.310;2022-07-29T08:25:26;20.20;18.00;13.40
61873;PMS5003;49692;55.052;73.310;2022-07-29T08:27:56;22.00;18.60;12.20
61873;PMS5003;49692;55.052;73.310;2022-07-29T08:30:22;28.40;27.00;17.20
61873;PMS5003;49692;55.052;73.310;2022-07-29T08:32:49;19.40;16.20;11.80
61873;PMS5003;49692;55.052;73.310;2022-07-29T08:35:23;19.20;16.20;11.40
61873;PMS5003;49692;55.052;73.310;2022-07-29T08:37:51;18.00;16.80;13.00
61873;PMS5003;49692;55.052;73.310;2022-07-29T08:40:18;16.80;16.80;11.20
61873;PMS5003;49692;55.052;73.310;2022-07-29T08:42:46;20.40;19.40;11.20
61873;PMS5003;49692;55.052;73.310;2022-07-29T08:45:14;18.60;18.40;14.00
61873;PMS5003;49692;55.052;73.310;2022-07-29T08:48:13;22.80;20.00;13.40
61873;PMS5003;49692;55.052;73.310;2022-07-29T08:50:47;21.60;19.60;13.20
61873;PMS5003;49692;55.052;73.310;2022-07-29T08:58:27;22.00;18.20;11.60
61873;PMS5003;49692;55.052;73.310;2022-07-29T09:06:19;21.60;18.60;11.40
61873;PMS5003;49692;55.052;73.310;2022-07-29T09:16:24;21.20;18.00;10.80
61873;PMS5003;49692;55.052;73.310;2022-07-29T09:19:43;20.60;16.20;11.60
61873;PMS5003;49692;55.052;73.310;2022-07-29T09:25:35;25.20;21.60;15.80
61873;PMS5003;49692;55.052;73.310;2022-07-29T09:28:08;22.00;20.40;14.00
61873;PMS5003;49692;55.052;73.310;2022-07-29T09:30:55;22.80;20.60;14.20
61873;PMS5003;49692;55.052;73.310;2022-07-29T09:33:31;24.20;18.40;12.80
61873;PMS5003;49692;55.052;73.310;2022-07-29T09:36:05;20.20;19.80;14.60
61873;PMS5003;49692;55.052;73.310;2022-07-29T09:38:34;27.80;21.20;14.20
61873;PMS5003;49692;55.052;73.310;2022-07-29T09:41:10;26.80;21.40;13.80
61873;PMS5003;49692;55.052;73.310;2022-07-29T09:43:39;22.60;22.00;15.60
61873;PMS5003;49692;55.052;73.310;2022-07-29T09:46:10;21.40;20.20;14.00
61873;PMS5003;49692;55.052;73.310;2022-07-29T09:48:38;19.00;19.00;11.40
61873;PMS5003;49692;55.052;73.310;2022-07-29T09:51:16;25.60;18.80;12.20
61873;PMS5003;49692;55.052;73.310;2022-07-29T09:53:57;24.80;23.00;15.00
61873;PMS5003;49692;55.052;73.310;2022-07-29T09:56:39;23.80;20.60;15.60
61873;PMS5003;49692;55.052;73.310;2022-07-29T09:59:17;19.00;19.00;15.00
61873;PMS5003;49692;55.052;73.310;2022-07-29T10:01:48;18.00;18.00;11.00
61873;PMS5003;49692;55.052;73.310;2022-07-29T10:04:23;21.40;20.60;13.00
61873;PMS5003;49692;55.052;73.310;2022-07-29T10:07:02;21.20;19.00;12.60
61873;PMS5003;49692;55.052;73.310;2022-07-29T10:09:33;18.80;15.40;10.20
61873;PMS5003;49692;55.052;73.310;2022-07-29T10:12:04;17.80;17.80;12.80
61873;PMS5003;49692;55.052;73.310;2022-07-29T10:14:32;18.20;16.60;11.40
61873;PMS5003;49692;55.052;73.310;2022-07-29T10:17:02;18.20;17.40;10.40
61873;PMS5003;49692;55.052;73.310;2022-07-29T10:19:31;21.20;20.60;15.20
61873;PMS5003;49692;55.052;73.310;2022-07-29T10:22:00;23.00;19.60;14.00
61873;PMS5003;49692;55.052;73.310;2022-07-29T10:24:39;22.00;20.60;13.60
61873;PMS5003;49692;55.052;73.310;2022-07-29T10:27:07;21.40;20.00;13.20
61873;PMS5003;49692;55.052;73.310;2022-07-29T10:29:34;22.00;19.80;15.00
61873;PMS5003;49692;55.052;73.310;2022-07-29T10:34:44;13.00;11.40;9.20
61873;PMS5003;49692;55.052;73.310;2022-07-29T10:43:28;23.40;23.40;13.20
61873;PMS5003;49692;55.052;73.310;2022-07-29T10:46:01;20.80;20.80;12.00
61873;PMS5003;49692;55.052;73.310;2022-07-29T10:48:29;22.80;17.60;13.60
61873;PMS5003;49692;55.052;73.310;2022-07-29T10:51:03;18.40;15.80;9.40
61873;PMS5003;49692;55.052;73.310;2022-07-29T10:53:45;22.20;19.20;13.40
61873;PMS5003;49692;55.052;73.310;2022-07-29T10:56:29;17.80;16.60;12.00
61873;PMS5003;49692;55.052;73.310;2022-07-29T11:01:45;17.00;14.20;8.00
61873;PMS5003;49692;55.052;73.310;2022-07-29T11:07:09;15.00;15.00;9.40
61873;PMS5003;49692;55.052;73.310;2022-07-29T11:15:17;17.80;16.40;10.80
61873;PMS5003;49692;55.052;73.310;2022-07-29T11:20:35;27.40;22.40;15.80
61873;PMS5003;49692;55.052;73.310;2022-07-29T11:26:18;12.60;12.40;7.40
61873;PMS5003;49692;55.052;73.310;2022-07-29T11:31:43;20.00;20.00;13.00
61873;PMS5003;49692;55.052;73.310;2022-07-29T11:39:37;18.60;15.00;11.00
61873;PMS5003;49692;55.052;73.310;2022-07-29T11:47:42;13.80;13.00;11.20
61873;PMS5003;49692;55.052;73.310;2022-07-29T11:50:28;13.20;12.20;9.00
61873;PMS5003;49692;55.052;73.310;2022-07-29T11:52:56;16.40;13.00;9.00
61873;PMS5003;49692;55.052;73.310;2022-07-29T11:55:24;18.40;17.60;12.40
61873;PMS5003;49692;55.052;73.310;2022-07-29T11:57:53;16.00;13.60;8.60
61873;PMS5003;49692;55.052;73.310;2022-07-29T12:02:49;13.00;12.20;9.20
61873;PMS5003;49692;55.052;73.310;2022-07-29T12:05:37;16.20;15.40;11.60
61873;PMS5003;49692;55.052;73.310;2022-07-29T12:08:12;16.40;16.20;10.20
61873;PMS5003;49692;55.052;73.310;2022-07-29T12:10:39;22.80;15.20;9.60
61873;PMS5003;49692;55.052;73.310;2022-07-29T12:13:12;13.80;11.60;9.00
61873;PMS5003;49692;55.052;73.310;2022-07-29T12:15:40;12.00;10.80;8.20
61873;PMS5003;49692;55.052;73.310;2022-07-29T12:20:44;26.60;23.40;14.60
61873;PMS5003;49692;55.052;73.310;2022-07-29T12:23:15;21.40;20.00;12.00
61873;PMS5003;49692;55.052;73.310;2022-07-29T12:25:42;18.60;15.00;10.20
61873;PMS5003;49692;55.052;73.310;2022-07-29T12:28:14;17.40;16.40;11.60
61873;PMS5003;49692;55.052;73.310;2022-07-29T12:30:45;19.80;17.20;11.40
61873;PMS5003;49692;55.052;73.310;2022-07-29T12:35:49;17.60;16.80;12.00
61873;PMS5003;49692;55.052;73.310;2022-07-29T12:38:20;14.40;11.60;9.60
61873;PMS5003;49692;55.052;73.310;2022-07-29T12:40:51;12.80;11.00;5.80
61873;PMS5003;49692;55.052;73.310;2022-07-29T12:43:20;17.60;15.60;9.60
61873;PMS5003;49692;55.052;73.310;2022-07-29T12:45:53;16.60;16.60;10.80
61873;PMS5003;49692;55.052;73.310;2022-07-29T12:48:38;18.20;14.40;11.00
61873;PMS5003;49692;55.052;73.310;2022-07-29T12:51:07;16.60;12.00;8.20
61873;PMS5003;49692;55.052;73.310;2022-07-29T12:54:01;13.40;13.40;9.20
61873;PMS5003;49692;55.052;73.310;2022-07-29T12:56:57;17.60;14.60;10.40
61873;PMS5003;49692;55.052;73.310;2022-07-29T12:59:25;15.20;12.80;10.00
61873;PMS5003;49692;55.052;73.310;2022-07-29T13:01:52;15.40;15.40;9.80
61873;PMS5003;49692;55.052;73.310;2022-07-29T13:04:26;13.60;12.80;8.60
61873;PMS5003;49692;55.052;73.310;2022-07-29T13:06:59;15.00;15.00;10.00
61873;PMS5003;49692;55.052;73.310;2022-07-29T13:09:37;12.00;12.00;8.60
61873;PMS5003;49692;55.052;73.310;2022-07-29T13:12:11;17.80;17.80;11.80
61873;PMS5003;49692;55.052;73.310;2022-07-29T13:14:47;18.80;15.00;11.60
61873;PMS5003;49692;55.052;73.310;2022-07-29T13:17:20;19.80;19.60;14.00
61873;PMS5003;49692;55.052;73.310;2022-07-29T13:19:52;12.00;12.00;8.20
61873;PMS5003;49692;55.052;73.310;2022-07-29T13:22:55;9.20;7.40;6.20
61873;PMS5003;49692;55.052;73.310;2022-07-29T13:25:36;12.00;11.80;9.20
61873;PMS5003;49692;55.052;73.310;2022-07-29T13:28:18;18.80;14.60;9.60
61873;PMS5003;49692;55.052;73.310;2022-07-29T13:31:14;10.20;10.20;7.40
61873;PMS5003;49692;55.052;73.310;2022-07-29T13:33:47;10.20;10.20;8.00
61873;PMS5003;49692;55.052;73.310;2022-07-29T13:36:48;14.40;12.60;8.40
61873;PMS5003;49692;55.052;73.310;2022-07-29T13:39:51;12.80;12.00;7.60
61873;PMS5003;49692;55.052;73.310;2022-07-29T13:42:32;12.00;10.00;7.20
61873;PMS5003;49692;55.052;73.310;2022-07-29T13:45:15;10.60;10.40;7.20
61873;PMS5003;49692;55.052;73.310;2022-07-29T13:47:46;10.00;10.00;7.00
61873;PMS5003;49692;55.052;73.310;2022-07-29T13:50:20;8.00;6.00;4.80
61873;PMS5003;49692;55.052;73.310;2022-07-29T13:53:00;12.40;7.80;6.20
61873;PMS5003;49692;55.052;73.310;2022-07-29T13:55:30;11.80;7.20;5.40
61873;PMS5003;49692;55.052;73.310;2022-07-29T13:58:06;9.80;8.20;6.00
61873;PMS5003;49692;55.052;73.310;2022-07-29T14:00:41;10.80;10.80;8.00
61873;PMS5003;49692;55.052;73.310;2022-07-29T14:03:10;6.20;6.20;5.00
61873;PMS5003;49692;55.052;73.310;2022-07-29T14:05:39;5.20;2.20;1.00
61873;PMS5003;49692;55.052;73.310;2022-07-29T14:08:18;9.40;7.00;6.00
61873;PMS5003;49692;55.052;73.310;2022-07-29T14:13:33;10.40;8.60;6.00
61873;PMS5003;49692;55.052;73.310;2022-07-29T14:16:04;13.40;13.00;8.20
61873;PMS5003;49692;55.052;73.310;2022-07-29T14:18:43;9.20;8.40;6.00
61873;PMS5003;49692;55.052;73.310;2022-07-29T14:21:16;8.00;6.80;6.00
61873;PMS5003;49692;55.052;73.310;2022-07-29T14:23:46;10.20;9.40;6.40
61873;PMS5003;49692;55.052;73.310;2022-07-29T14:26:29;11.20;9.60;6.20
61873;PMS5003;49692;55.052;73.310;2022-07-29T14:28:56;9.20;9.00;6.00
61873;PMS5003;49692;55.052;73.310;2022-07-29T14:31:26;12.60;9.40;6.60
61873;PMS5003;49692;55.052;73.310;2022-07-29T14:34:06;10.00;8.40;6.00
61873;PMS5003;49692;55.052;73.310;2022-07-29T14:36:37;9.80;9.80;7.40
61873;PMS5003;49692;55.052;73.310;2022-07-29T14:42:09;6.40;5.40;4.80
61873;PMS5003;49692;55.052;73.310;2022-07-29T14:44:48;12.40;11.20;7.40
61873;PMS5003;49692;55.052;73.310;2022-07-29T14:47:39;15.40;7.80;5.00
61873;PMS5003;49692;55.052;73.310;2022-07-29T14:50:17;10.40;8.40;6.20
61873;PMS5003;49692;55.052;73.310;2022-07-29T14:52:45;9.00;7.40;5.20
61873;PMS5003;49692;55.052;73.310;2022-07-29T14:55:25;8.00;8.00;6.60
61873;PMS5003;49692;55.052;73.310;2022-07-29T14:58:18;6.00;6.00;5.00
61873;PMS5003;49692;55.052;73.310;2022-07-29T15:00:49;2.20;2.20;1.00
61873;PMS5003;49692;55.052;73.310;2022-07-29T15:03:29;10.80;8.00;6.80
61873;PMS5003;49692;55.052;73.310;2022-07-29T15:06:07;6.40;5.20;3.00
61873;PMS5003;49692;55.052;73.310;2022-07-29T15:08:50;6.60;6.60;5.00
61873;PMS5003;49692;55.052;73.310;2022-07-29T15:11:25;9.00;7.60;5.80
61873;PMS5003;49692;55.052;73.310;2022-07-29T15:14:01;9.00;9.00;6.00
61873;PMS5003;49692;55.052;73.310;2022-07-29T15:16:35;8.80;8.80;5.00
61873;PMS5003;49692;55.052;73.310;2022-07-29T15:19:47;9.20;8.20;5.20
61873;PMS5003;49692;55.052;73.310;2022-07-29T15:23:14;7.80;7.60;5.00
61873;PMS5003;49692;55.052;73.310;2022-07-29T15:25:50;9.00;8.80;5.20
61873;PMS5003;49692;55.052;73.310;2022-07-29T15:28:32;7.00;7.00;6.00
61873;PMS5003;49692;55.052;73.310;2022-07-29T15:31:02;9.80;9.00;6.20
61873;PMS5003;49692;55.052;73.310;2022-07-29T15:33:28;10.60;8.00;6.00
61873;PMS5003;49692;55.052;73.310;2022-07-29T15:35:56;7.20;5.80;4.60